createdAt,value
2024-02-19T00:01:30.622Z,100530.47
2024-02-19T00:03:59.281Z,100524.22
2024-02-19T00:06:27.611Z,100525.94
2024-02-19T00:08:55.884Z,100523.50
2024-02-19T00:11:24.720Z,100525.94
2024-02-19T00:13:52.996Z,100525.94
2024-02-19T00:16:21.436Z,100526.50
2024-02-19T00:18:50.411Z,100524.66
2024-02-19T00:21:23.401Z,100516.31
2024-02-19T00:23:52.131Z,100513.34
2024-02-19T00:26:20.431Z,100514.19
2024-02-19T00:28:48.759Z,100507.78
2024-02-19T00:31:18.038Z,100488.66
2024-02-19T00:33:46.472Z,100497.97
2024-02-19T00:36:14.813Z,100478.34
2024-02-19T00:38:43.002Z,100484.13
2024-02-19T00:41:11.554Z,100491.16
2024-02-19T00:43:39.804Z,100489.75
2024-02-19T00:46:08.136Z,100491.72
2024-02-19T00:48:36.410Z,100483.94
2024-02-19T00:51:07.706Z,100495.06
2024-02-19T00:53:35.915Z,100492.94
2024-02-19T00:56:04.150Z,100490.84
2024-02-19T00:58:32.358Z,100482.72
2024-02-19T01:01:00.833Z,100488.72
2024-02-19T01:03:42.145Z,100486.91
2024-02-19T01:06:10.443Z,100482.19
2024-02-19T01:08:39.355Z,100481.56
2024-02-19T01:11:07.652Z,100483.13
2024-02-19T01:13:36.120Z,100480.16
2024-02-19T01:16:04.454Z,100479.88
2024-02-19T01:18:34.508Z,100479.28
2024-02-19T01:21:03.577Z,100473.63
2024-02-19T01:23:32.006Z,100481.63
2024-02-19T01:26:00.243Z,100481.06
2024-02-19T01:28:28.701Z,100472.38
2024-02-19T01:30:58.744Z,100472.91
2024-02-19T01:33:27.112Z,100477.25
2024-02-19T01:35:55.357Z,100484.84
2024-02-19T01:38:23.678Z,100467.66
2024-02-19T01:40:51.910Z,100467.13
2024-02-19T01:43:20.147Z,100475.84
2024-02-19T01:45:48.417Z,100475.59
2024-02-19T01:48:17.142Z,100467.00
2024-02-19T01:50:46.587Z,100458.63
2024-02-19T01:53:14.848Z,100463.97
2024-02-19T01:55:43.850Z,100468.50
2024-02-19T01:58:13.370Z,100463.59
2024-02-19T02:00:42.332Z,100459.91
2024-02-19T02:03:13.194Z,100453.94
2024-02-19T02:05:41.939Z,100455.31
2024-02-19T02:08:10.263Z,100460.13
2024-02-19T02:10:38.466Z,100453.75
2024-02-19T02:13:06.799Z,100454.50
2024-02-19T02:15:35.105Z,100460.66
2024-02-19T02:18:03.650Z,100455.06
2024-02-19T02:20:32.704Z,100459.06
2024-02-19T02:23:01.863Z,100469.25
2024-02-19T02:25:30.070Z,100475.53
2024-02-19T02:27:58.664Z,100473.75
2024-02-19T02:30:27.064Z,100464.13
2024-02-19T02:32:56.836Z,100461.38
2024-02-19T02:35:25.826Z,100455.81
2024-02-19T02:37:54.060Z,100456.97
2024-02-19T02:40:22.362Z,100456.63
2024-02-19T02:42:50.668Z,100469.56
2024-02-19T02:45:18.863Z,100470.44
2024-02-19T02:47:47.100Z,100463.50
2024-02-19T02:50:15.371Z,100477.44
2024-02-19T02:52:44.023Z,100474.66
2024-02-19T02:55:12.388Z,100473.03
2024-02-19T02:57:40.681Z,100480.06
2024-02-19T03:00:09.817Z,100478.44
2024-02-19T03:02:38.233Z,100477.25
2024-02-19T03:05:06.626Z,100479.06
2024-02-19T03:07:35.260Z,100477.25
2024-02-19T03:10:03.856Z,100478.09
2024-02-19T03:12:32.117Z,100477.75
2024-02-19T03:15:00.328Z,100486.75
2024-02-19T03:17:28.528Z,100486.78
2024-02-19T03:19:57.607Z,100492.88
2024-02-19T03:22:26.922Z,100488.69
2024-02-19T03:24:55.554Z,100497.66
2024-02-19T03:27:24.009Z,100500.75
2024-02-19T03:29:52.371Z,100503.53
2024-02-19T03:32:20.584Z,100504.34
2024-02-19T03:34:48.645Z,100513.56
2024-02-19T03:37:17.521Z,100513.75
2024-02-19T03:39:46.289Z,100512.59
2024-02-19T03:42:14.760Z,100517.31
2024-02-19T03:44:42.961Z,100519.66
2024-02-19T03:47:11.446Z,100529.75
2024-02-19T03:49:39.802Z,100537.09
2024-02-19T03:52:08.135Z,100530.69
2024-02-19T03:54:36.464Z,100529.03
2024-02-19T03:57:05.788Z,100540.31
2024-02-19T03:59:34.134Z,100548.13
2024-02-19T04:02:02.614Z,100551.63
2024-02-19T04:04:33.825Z,100552.72
2024-02-19T04:07:02.175Z,100560.31
2024-02-19T04:09:30.620Z,100563.13
2024-02-19T04:11:58.936Z,100571.19
2024-02-19T04:14:27.301Z,100575.16
2024-02-19T04:16:55.497Z,100571.75
2024-02-19T04:19:23.800Z,100586.41
2024-02-19T04:21:52.257Z,100584.66
2024-02-19T04:24:21.008Z,100580.19
2024-02-19T04:26:49.456Z,100595.28
2024-02-19T04:29:17.652Z,100585.56
2024-02-19T04:31:45.879Z,100598.09
2024-02-19T04:34:13.852Z,100597.75
2024-02-19T04:36:43.098Z,100604.63
2024-02-19T04:39:12.155Z,100606.84
2024-02-19T04:41:41.276Z,100607.81
2024-02-19T04:44:09.608Z,100609.53
2024-02-19T04:46:38.210Z,100602.06
2024-02-19T04:49:06.498Z,100613.06
2024-02-19T04:51:34.737Z,100614.91
2024-02-19T04:54:05.012Z,100615.25
2024-02-19T04:56:33.293Z,100614.31
2024-02-19T04:59:01.893Z,100620.06
2024-02-19T05:01:33.919Z,100624.03
2024-02-19T05:04:03.084Z,100626.56
2024-02-19T05:06:32.063Z,100633.47
2024-02-19T05:09:00.967Z,100629.50
2024-02-19T05:11:30.028Z,100634.50
2024-02-19T05:13:59.590Z,100648.53
2024-02-19T05:16:35.511Z,100642.22
2024-02-19T05:19:04.780Z,100637.63
2024-02-19T05:21:34.451Z,100641.84
2024-02-19T05:24:03.608Z,100636.94
2024-02-19T05:26:31.975Z,100627.31
2024-02-19T05:29:01.138Z,100637.41
2024-02-19T05:31:39.290Z,100632.44
2024-02-19T05:34:09.794Z,100641.25
2024-02-19T05:36:38.903Z,100639.94
2024-02-19T05:39:12.305Z,100645.59
2024-02-19T05:41:41.496Z,100644.84
2024-02-19T05:44:11.234Z,100650.84
2024-02-19T05:46:40.022Z,100650.56
2024-02-19T05:49:09.092Z,100654.03
2024-02-19T05:51:37.508Z,100665.84
2024-02-19T05:54:06.015Z,100659.19
2024-02-19T05:56:34.306Z,100663.09
2024-02-19T05:59:03.396Z,100671.72
2024-02-19T06:01:33.108Z,100679.66
2024-02-19T06:04:02.036Z,100684.13
2024-02-19T06:06:30.735Z,100684.59
2024-02-19T06:09:00.056Z,100691.03
2024-02-19T06:11:29.171Z,100691.59
2024-02-19T06:13:57.507Z,100691.03
2024-02-19T06:16:26.059Z,100697.44
2024-02-19T06:18:54.598Z,100701.63
2024-02-19T06:21:22.606Z,100708.03
2024-02-19T06:23:50.822Z,100715.63
2024-02-19T06:26:19.276Z,100726.78
2024-02-19T06:28:47.561Z,100725.97
2024-02-19T06:31:15.911Z,100728.03
2024-02-19T06:33:44.346Z,100750.38
2024-02-19T06:36:12.769Z,100737.53
2024-02-19T06:38:41.020Z,100748.50
2024-02-19T06:41:09.262Z,100744.75
2024-02-19T06:43:37.497Z,100753.94
2024-02-19T06:46:06.019Z,100760.75
2024-02-19T06:48:34.293Z,100765.09
2024-02-19T06:51:02.711Z,100764.94
2024-02-19T06:53:31.371Z,100771.13
2024-02-19T06:55:59.899Z,100768.34
2024-02-19T06:58:28.163Z,100786.94
2024-02-19T07:00:56.614Z,100786.22
2024-02-19T07:03:24.901Z,100792.78
2024-02-19T07:05:53.167Z,100790.47
2024-02-19T07:08:21.733Z,100772.00
2024-02-19T07:10:49.974Z,100805.34
2024-02-19T07:13:18.276Z,100806.00
2024-02-19T07:15:46.575Z,100805.69
2024-02-19T07:18:14.927Z,100818.78
2024-02-19T07:20:43.211Z,100819.38
2024-02-19T07:23:11.466Z,100824.97
2024-02-19T07:25:40.550Z,100828.56
2024-02-19T07:28:08.943Z,100836.19
2024-02-19T07:30:38.495Z,100850.13
2024-02-19T07:33:07.229Z,100845.84
2024-02-19T07:35:35.501Z,100862.16
2024-02-19T07:38:03.753Z,100845.22
2024-02-19T07:40:35.534Z,100867.13
2024-02-19T07:43:04.681Z,100878.25
2024-02-19T07:45:32.939Z,100883.72
2024-02-19T07:48:01.506Z,100874.22
2024-02-19T07:50:29.931Z,100889.03
2024-02-19T07:52:58.231Z,100890.88
2024-02-19T07:55:27.136Z,100885.63
2024-02-19T07:57:55.489Z,100891.47
2024-02-19T08:00:23.710Z,100894.41
2024-02-19T08:02:52.154Z,100903.50
2024-02-19T08:05:20.535Z,100909.84
2024-02-19T08:07:48.863Z,100897.91
2024-02-19T08:10:17.254Z,100910.47
2024-02-19T08:12:45.724Z,100917.38
2024-02-19T08:15:14.066Z,100911.19
2024-02-19T08:17:42.416Z,100912.00
2024-02-19T08:20:11.066Z,100924.00
2024-02-19T08:22:39.274Z,100928.38
2024-02-19T08:25:07.209Z,100929.53
2024-02-19T08:27:35.466Z,100933.84
2024-02-19T08:30:03.875Z,100928.84
2024-02-19T08:32:32.139Z,100934.13
2024-02-19T08:35:00.508Z,100935.56
2024-02-19T08:37:28.880Z,100941.00
2024-02-19T08:39:57.827Z,100938.69
2024-02-19T08:42:26.730Z,100943.84
2024-02-19T08:44:54.968Z,100948.13
2024-02-19T08:47:23.157Z,100944.50
2024-02-19T08:49:51.547Z,100949.16
2024-02-19T08:52:20.199Z,100954.69
2024-02-19T08:54:48.452Z,100956.56
2024-02-19T08:57:17.721Z,100958.41
2024-02-19T08:59:47.298Z,100959.03
2024-02-19T09:02:16.145Z,100958.72
2024-02-19T09:04:45.200Z,100965.81
2024-02-19T09:07:16.781Z,100973.50
2024-02-19T09:09:46.051Z,100975.00
2024-02-19T09:12:14.822Z,100974.59
2024-02-19T09:14:43.074Z,100970.34
2024-02-19T09:17:11.310Z,100981.75
2024-02-19T09:19:39.784Z,100988.78
2024-02-19T09:22:08.789Z,100987.06
2024-02-19T09:24:47.672Z,100975.88
2024-02-19T09:27:16.907Z,100982.06
2024-02-19T09:29:46.195Z,100987.97
2024-02-19T09:32:14.449Z,100984.25
2024-02-19T09:34:44.117Z,100993.47
2024-02-19T09:37:13.027Z,100993.38
2024-02-19T09:39:50.796Z,100989.63
2024-02-19T09:42:19.164Z,101001.09
2024-02-19T09:44:47.533Z,100996.94
2024-02-19T09:47:21.180Z,100992.69
2024-02-19T09:49:52.668Z,100996.25
2024-02-19T09:52:30.010Z,100999.34
2024-02-19T09:54:59.604Z,101006.78
2024-02-19T09:57:29.318Z,101012.81
2024-02-19T09:59:59.609Z,101017.16
2024-02-19T10:02:27.930Z,101013.88
2024-02-19T10:04:56.255Z,101013.56
2024-02-19T10:07:24.735Z,101030.81
2024-02-19T10:09:53.222Z,101029.97
2024-02-19T10:12:21.576Z,101030.84
2024-02-19T10:14:49.852Z,101026.91
2024-02-19T10:17:24.257Z,101027.13
2024-02-19T10:20:06.602Z,101024.09
2024-02-19T10:22:37.680Z,101030.91
2024-02-19T10:25:08.482Z,101030.31
2024-02-19T10:27:37.512Z,101031.34
2024-02-19T10:30:10.077Z,101024.69
2024-02-19T10:32:38.360Z,101036.09
2024-02-19T10:35:06.842Z,101027.78
2024-02-19T10:37:36.992Z,101030.84
2024-02-19T10:40:11.086Z,101032.56
2024-02-19T10:42:39.707Z,101034.94
2024-02-19T10:45:10.158Z,101045.94
2024-02-19T10:47:39.612Z,101045.63
2024-02-19T10:50:10.565Z,101046.91
2024-02-19T10:52:41.755Z,101050.19
2024-02-19T10:55:20.826Z,101052.31
2024-02-19T10:57:56.230Z,101048.31
2024-02-19T11:00:29.422Z,101063.56
2024-02-19T11:03:08.929Z,101049.38
2024-02-19T11:05:41.153Z,101055.59
2024-02-19T11:08:21.744Z,101052.44
2024-02-19T11:10:51.462Z,101045.38
2024-02-19T11:13:22.011Z,101042.91
2024-02-19T11:15:50.384Z,101043.47
2024-02-19T11:18:22.727Z,101043.59
2024-02-19T11:20:52.002Z,101040.88
2024-02-19T11:23:21.648Z,101040.28
2024-02-19T11:25:50.090Z,101032.38
2024-02-19T11:28:18.448Z,101027.47
2024-02-19T11:30:49.771Z,101036.72
2024-02-19T11:33:18.127Z,101027.53
2024-02-19T11:35:46.647Z,101039.78
2024-02-19T11:38:14.983Z,101014.59
2024-02-19T11:40:43.572Z,101022.81
2024-02-19T11:43:12.642Z,101021.78
2024-02-19T11:45:41.229Z,101018.59
2024-02-19T11:48:09.725Z,101014.38
2024-02-19T11:50:37.708Z,101015.47
2024-02-19T11:53:06.196Z,101010.63
2024-02-19T11:55:35.365Z,101013.50
2024-02-19T11:58:06.940Z,101018.00
2024-02-19T12:00:36.565Z,101014.66
2024-02-19T12:03:05.555Z,101013.63
2024-02-19T12:05:33.968Z,101018.81
2024-02-19T12:08:02.493Z,101002.84
2024-02-19T12:10:31.024Z,101021.97
2024-02-19T12:12:59.321Z,101018.69
2024-02-19T12:15:27.566Z,101023.75
2024-02-19T12:17:55.919Z,101024.19
2024-02-19T12:20:24.204Z,101016.84
2024-02-19T12:22:52.470Z,101018.16
2024-02-19T12:25:20.951Z,101026.34
2024-02-19T12:27:49.297Z,101018.63
2024-02-19T12:30:17.705Z,101031.63
2024-02-19T12:32:47.050Z,101043.25
2024-02-19T12:35:17.495Z,101028.34
2024-02-19T12:37:45.855Z,101040.09
2024-02-19T12:40:14.958Z,101037.66
2024-02-19T12:42:43.345Z,101039.75
2024-02-19T12:45:11.509Z,101027.19
2024-02-19T12:47:39.869Z,101027.06
2024-02-19T12:50:09.584Z,101036.31
2024-02-19T12:52:38.236Z,101039.25
2024-02-19T12:55:07.623Z,101035.88
2024-02-19T12:57:35.895Z,101037.72
2024-02-19T13:00:08.238Z,101040.56
2024-02-19T13:02:37.142Z,101040.44
2024-02-19T13:05:05.295Z,101040.09
2024-02-19T13:07:33.603Z,101044.44
2024-02-19T13:10:01.874Z,101041.63
2024-02-19T13:12:32.376Z,101039.84
2024-02-19T13:15:01.893Z,101033.72
2024-02-19T13:17:39.735Z,101036.19
2024-02-19T13:20:14.353Z,101038.41
2024-02-19T13:22:43.196Z,101038.41
2024-02-19T13:25:12.130Z,101040.97
2024-02-19T13:27:40.683Z,101044.72
2024-02-19T13:30:10.790Z,101033.47
2024-02-19T13:32:39.857Z,101038.06
2024-02-19T13:35:11.417Z,101032.09
2024-02-19T13:37:41.097Z,101036.78
2024-02-19T13:40:12.002Z,101035.50
2024-02-19T13:42:41.122Z,101037.50
2024-02-19T13:45:11.305Z,101042.56
2024-02-19T13:47:42.432Z,101041.97
2024-02-19T13:50:13.029Z,101047.13
2024-02-19T13:52:41.813Z,101045.50
2024-02-19T13:55:10.686Z,101048.78
2024-02-19T13:57:38.996Z,101049.25
2024-02-19T14:00:07.893Z,101039.03
2024-02-19T14:02:36.644Z,101037.28
2024-02-19T14:05:05.046Z,101036.00
2024-02-19T14:07:34.232Z,101032.34
2024-02-19T14:10:02.794Z,101033.88
2024-02-19T14:12:31.334Z,101036.00
2024-02-19T14:15:00.270Z,101034.81
2024-02-19T14:17:29.474Z,101035.50
2024-02-19T14:19:57.847Z,101032.69
2024-02-19T14:22:26.418Z,101023.53
2024-02-19T14:24:54.871Z,101024.34
2024-02-19T14:27:23.138Z,101021.19
2024-02-19T14:29:51.419Z,101028.34
2024-02-19T14:32:21.513Z,101021.53
2024-02-19T14:34:51.997Z,101025.50
2024-02-19T14:37:20.620Z,101031.63
2024-02-19T14:39:49.761Z,101038.53
2024-02-19T14:42:18.191Z,101028.41
2024-02-19T14:44:46.419Z,101027.13
2024-02-19T14:47:14.721Z,101034.41
2024-02-19T14:49:43.048Z,101020.03
2024-02-19T14:52:11.330Z,101016.91
2024-02-19T14:54:40.364Z,101019.41
2024-02-19T14:57:09.117Z,101012.34
2024-02-19T14:59:41.281Z,101014.94
2024-02-19T15:02:10.448Z,101024.56
2024-02-19T15:04:38.854Z,101023.06
2024-02-19T15:07:07.610Z,101013.19
2024-02-19T15:09:36.046Z,101020.72
2024-02-19T15:12:04.482Z,101022.94
2024-02-19T15:14:32.710Z,101025.88
2024-02-19T15:17:00.994Z,101022.50
2024-02-19T15:19:29.509Z,101026.47
2024-02-19T15:21:57.974Z,101029.88
2024-02-19T15:24:27.074Z,101024.16
2024-02-19T15:26:55.340Z,101027.19
2024-02-19T15:29:25.215Z,101025.75
2024-02-19T15:31:53.579Z,101022.50
2024-02-19T15:34:23.529Z,101027.06
2024-02-19T15:36:51.955Z,101018.69
2024-02-19T15:39:20.279Z,101016.75
2024-02-19T15:41:48.968Z,101027.41
2024-02-19T15:44:17.202Z,101023.53
2024-02-19T15:46:45.448Z,101026.25
2024-02-19T15:49:14.231Z,101023.31
2024-02-19T15:51:42.993Z,101028.81
2024-02-19T15:54:11.885Z,101025.75
2024-02-19T15:56:40.511Z,101029.88
2024-02-19T15:59:08.741Z,101029.53
2024-02-19T16:01:37.514Z,101028.59
2024-02-19T16:04:05.589Z,101023.19
2024-02-19T16:06:34.178Z,101017.22
2024-02-19T16:09:02.825Z,101013.09
2024-02-19T16:11:31.320Z,101007.22
2024-02-19T16:13:59.608Z,101006.88
2024-02-19T16:16:27.983Z,101000.78
2024-02-19T16:18:57.147Z,101007.13
2024-02-19T16:21:25.465Z,101010.06
2024-02-19T16:23:53.676Z,101003.97
2024-02-19T16:26:22.319Z,101014.16
2024-02-19T16:28:51.250Z,101003.47
2024-02-19T16:31:20.194Z,101009.44
2024-02-19T16:33:48.889Z,101006.97
2024-02-19T16:36:17.962Z,101007.34
2024-02-19T16:38:46.823Z,101007.81
2024-02-19T16:41:16.013Z,101007.22
2024-02-19T16:43:44.313Z,101003.84
2024-02-19T16:46:13.989Z,101004.88
2024-02-19T16:48:42.987Z,101006.53
2024-02-19T16:51:14.153Z,101003.34
2024-02-19T16:53:47.970Z,101012.25
2024-02-19T16:56:16.371Z,101014.41
2024-02-19T16:58:44.958Z,101018.25
2024-02-19T17:01:18.461Z,101028.13
2024-02-19T17:03:47.665Z,101026.91
2024-02-19T17:06:16.136Z,101024.56
2024-02-19T17:08:45.953Z,101019.78
2024-02-19T17:11:14.804Z,101013.41
2024-02-19T17:13:43.223Z,101017.88
2024-02-19T17:16:11.835Z,101019.25
2024-02-19T17:18:40.766Z,101020.69
2024-02-19T17:21:10.962Z,101014.91
2024-02-19T17:23:43.698Z,101021.97
2024-02-19T17:26:12.681Z,101036.03
2024-02-19T17:28:40.916Z,101022.53
2024-02-19T17:31:09.599Z,101030.84
2024-02-19T17:33:37.959Z,101028.97
2024-02-19T17:36:06.957Z,101034.13
2024-02-19T17:38:35.176Z,101030.84
2024-02-19T17:41:05.024Z,101031.06
2024-02-19T17:43:33.687Z,101028.16
2024-02-19T17:46:04.239Z,101017.94
2024-02-19T17:48:32.775Z,101024.53
2024-02-19T17:51:01.791Z,101022.19
2024-02-19T17:53:30.742Z,101021.72
2024-02-19T17:55:58.953Z,101019.28
2024-02-19T17:58:27.599Z,101018.91
2024-02-19T18:00:55.938Z,101018.91
2024-02-19T18:03:24.299Z,101006.03
2024-02-19T18:05:55.109Z,101010.63
2024-02-19T18:08:23.405Z,101011.91
2024-02-19T18:10:51.617Z,101011.44
2024-02-19T18:13:22.993Z,101008.13
2024-02-19T18:15:51.552Z,101012.47
2024-02-19T18:18:20.179Z,100998.53
2024-02-19T18:20:50.221Z,101004.16
2024-02-19T18:23:20.002Z,101008.03
2024-02-19T18:25:48.772Z,101006.63
2024-02-19T18:28:17.263Z,101005.00
2024-02-19T18:30:45.692Z,101009.66
2024-02-19T18:33:15.210Z,101008.84
2024-02-19T18:35:43.593Z,101006.03
2024-02-19T18:38:13.274Z,101007.69
2024-02-19T18:40:42.900Z,101004.84
2024-02-19T18:43:11.502Z,100998.28
2024-02-19T18:45:41.584Z,101011.66
2024-02-19T18:48:12.541Z,101009.38
2024-02-19T18:50:40.837Z,101008.69
2024-02-19T18:53:09.843Z,101002.94
2024-02-19T18:55:38.174Z,101007.03
2024-02-19T18:58:06.800Z,101001.50
2024-02-19T19:00:35.058Z,101010.19
2024-02-19T19:03:03.353Z,100998.47
2024-02-19T19:05:32.064Z,100995.31
2024-02-19T19:08:00.564Z,101007.28
2024-02-19T19:10:29.180Z,100999.19
2024-02-19T19:12:57.424Z,101001.88
2024-02-19T19:15:27.288Z,100994.03
2024-02-19T19:17:55.933Z,101003.28
2024-02-19T19:20:25.846Z,100997.66
2024-02-19T19:22:54.205Z,100996.16
2024-02-19T19:25:22.679Z,101004.13
2024-02-19T19:27:50.621Z,100995.47
2024-02-19T19:30:18.780Z,101000.84
2024-02-19T19:32:47.065Z,100994.88
2024-02-19T19:35:16.002Z,100996.28
2024-02-19T19:37:45.858Z,100993.94
2024-02-19T19:40:15.083Z,100994.53
2024-02-19T19:42:47.289Z,100989.34
2024-02-19T19:45:16.097Z,100992.41
2024-02-19T19:47:44.353Z,100988.81
2024-02-19T19:50:12.782Z,100993.59
2024-02-19T19:52:41.206Z,100991.25
2024-02-19T19:55:09.414Z,100987.97
2024-02-19T19:57:37.757Z,100993.34
2024-02-19T20:00:07.803Z,100996.06
2024-02-19T20:02:36.846Z,100999.47
2024-02-19T20:05:05.464Z,100999.47
2024-02-19T20:07:34.010Z,100998.63
2024-02-19T20:10:06.837Z,100990.78
2024-02-19T20:12:37.760Z,100995.59
2024-02-19T20:15:06.388Z,100991.25
2024-02-19T20:17:36.269Z,101000.63
2024-02-19T20:20:05.921Z,101003.56
2024-02-19T20:22:33.994Z,101005.06
2024-02-19T20:25:02.504Z,101005.06
2024-02-19T20:27:30.603Z,101005.88
2024-02-19T20:29:58.838Z,101002.38
2024-02-19T20:32:27.130Z,101006.59
2024-02-19T20:34:55.554Z,101010.09
2024-02-19T20:37:23.928Z,101013.47
2024-02-19T20:39:52.455Z,101013.03
2024-02-19T20:42:20.850Z,101010.91
2024-02-19T20:44:49.126Z,101015.03
2024-02-19T20:47:18.783Z,101008.81
2024-02-19T20:49:48.152Z,101012.09
2024-02-19T20:52:16.593Z,101014.69
2024-02-19T20:54:45.431Z,101011.63
2024-02-19T20:57:13.917Z,101008.44
2024-02-19T20:59:42.138Z,101009.28
2024-02-19T21:02:10.653Z,101007.63
2024-02-19T21:04:39.053Z,101008.09
2024-02-19T21:07:07.573Z,101017.81
2024-02-19T21:09:38.035Z,101008.91
2024-02-19T21:12:06.570Z,101011.38
2024-02-19T21:14:35.778Z,101000.59
2024-02-19T21:17:04.862Z,101007.63
2024-02-19T21:19:33.579Z,101008.00
2024-02-19T21:22:02.702Z,101012.00
2024-02-19T21:24:31.055Z,101002.25
2024-02-19T21:27:00.546Z,101015.97
2024-02-19T21:29:30.082Z,101014.06
2024-02-19T21:31:59.081Z,101014.06
2024-02-19T21:34:27.473Z,101006.81
2024-02-19T21:36:57.859Z,101011.47
2024-02-19T21:39:26.839Z,101003.63
2024-02-19T21:41:55.181Z,101013.13
2024-02-19T21:44:23.839Z,100997.78
2024-02-19T21:46:52.041Z,101000.94
2024-02-19T21:49:21.563Z,100995.69
2024-02-19T21:51:50.223Z,100999.56
2024-02-19T21:54:18.577Z,100998.50
2024-02-19T21:56:47.516Z,100989.22
2024-02-19T21:59:18.073Z,100991.91
2024-02-19T22:01:47.115Z,100984.06
2024-02-19T22:04:15.568Z,100981.03
2024-02-19T22:06:44.683Z,100983.72
2024-02-19T22:09:13.012Z,100977.72
2024-02-19T22:11:45.910Z,100974.31
2024-02-19T22:14:15.467Z,100969.50
2024-02-19T22:16:43.940Z,100966.34
2024-02-19T22:19:12.373Z,100970.53
2024-02-19T22:21:40.668Z,100962.13
2024-02-19T22:24:09.272Z,100962.94
2024-02-19T22:26:38.041Z,100962.31
2024-02-19T22:29:06.476Z,100961.50
2024-02-19T22:31:34.881Z,100953.91
2024-02-19T22:34:03.226Z,100949.09
2024-02-19T22:36:31.536Z,100947.44
2024-02-19T22:38:59.767Z,100953.28
2024-02-19T22:41:30.699Z,100945.03
2024-02-19T22:44:00.232Z,100949.63
2024-02-19T22:46:28.482Z,100954.28
2024-02-19T22:48:58.016Z,100947.72
2024-02-19T22:51:26.392Z,100949.81
2024-02-19T22:53:54.678Z,100947.81
2024-02-19T22:56:23.050Z,100956.94
2024-02-19T22:58:51.481Z,100949.53
2024-02-19T23:01:20.628Z,100947.09
2024-02-19T23:03:51.823Z,100949.97
2024-02-19T23:06:21.050Z,100950.81
2024-02-19T23:08:49.671Z,100949.97
2024-02-19T23:11:18.020Z,100939.44
2024-02-19T23:13:46.645Z,100943.41
2024-02-19T23:16:14.935Z,100939.69
2024-02-19T23:18:43.240Z,100945.66
2024-02-19T23:21:13.708Z,100947.53
2024-02-19T23:23:42.084Z,100948.38
2024-02-19T23:26:10.287Z,100948.50
2024-02-19T23:28:38.570Z,100948.50
2024-02-19T23:31:07.111Z,100947.91
2024-02-19T23:33:35.526Z,100954.94
2024-02-19T23:36:04.781Z,100956.22
2024-02-19T23:38:33.525Z,100956.59
2024-02-19T23:41:02.102Z,100951.53
2024-02-19T23:43:30.779Z,100956.34
2024-02-19T23:45:59.566Z,100956.13
2024-02-19T23:48:28.109Z,100957.16
2024-02-19T23:50:56.395Z,100964.56
2024-02-19T23:53:25.333Z,100954.84
2024-02-19T23:55:53.326Z,100954.59
2024-02-19T23:58:21.857Z,100956.03
